Time;durP1;ratioP1;P1;durP2;ratioP2;P2;SDS_P1;SDS_P2;PMS_P1;PMS_P2;Temp;Humidity;BMP_temperature;BMP_pressure;BME280_temperature;BME280_humidity;BME280_pressure;Samples;Min_cycle;Max_cycle;Signal;HPM_P1;HPM_P2
2022/06/24 00:05:30;;;;;;;11.57;7.45;;;;;;;13.80;72.11;99035.31;4389524;79;21053;-83
2022/06/24 00:18:41;;;;;;;12.50;6.92;;;;;;;13.57;73.02;99047.32;4406072;80;21006;-82
2022/06/24 00:24:43;;;;;;;7.60;5.40;;;;;;;13.50;73.56;99052.22;4392278;78;21016;-83
2022/06/24 00:37:40;;;;;;;11.33;7.08;;;;;;;13.56;74.01;99051.26;4408861;79;21421;-83
2022/06/24 00:43:45;;;;;;;11.88;6.97;;;;;;;13.31;74.01;99049.09;4372397;79;21003;-82
2022/06/24 00:56:24;;;;;;;8.28;5.92;;;;;;;13.02;74.65;99050.99;4375698;79;20983;-82
2022/06/24 01:15:55;;;;;;;9.90;7.40;;;;;;;12.73;75.65;99037.55;4356588;80;21034;-82
2022/06/24 01:21:57;;;;;;;11.75;7.03;;;;;;;12.55;76.15;99030.03;4375651;79;20986;-82
2022/06/24 01:27:59;;;;;;;9.85;6.33;;;;;;;12.47;76.40;99031.75;4370150;79;21908;-82
2022/06/24 01:34:00;;;;;;;10.10;5.95;;;;;;;12.38;76.67;99027.21;4348154;78;21070;-82
2022/06/24 01:40:02;;;;;;;9.25;4.97;;;;;;;12.34;77.45;99024.44;4391589;79;21018;-82
2022/06/24 01:46:04;;;;;;;7.08;5.05;;;;;;;12.49;77.96;99018.44;4369051;79;20980;-84
2022/06/24 01:52:05;;;;;;;7.40;5.30;;;;;;;12.77;78.17;99016.35;4376525;79;21006;-82
2022/06/24 01:58:08;;;;;;;7.78;5.50;;;;;;;12.73;77.91;99025.19;4279479;81;21072;-82
2022/06/24 02:04:10;;;;;;;10.45;6.70;;;;;;;12.51;77.72;99027.84;4241484;82;21051;-82
2022/06/24 02:16:33;;;;;;;8.83;5.10;;;;;;;12.31;78.68;99020.30;4242052;82;21000;-82
2022/06/24 02:22:35;;;;;;;7.83;6.40;;;;;;;12.38;78.55;99021.72;4388495;79;21482;-82
2022/06/24 02:28:36;;;;;;;10.18;6.55;;;;;;;12.23;78.77;99016.74;4384620;79;21003;-82
2022/06/24 02:34:38;;;;;;;8.68;5.80;;;;;;;12.05;78.92;99018.63;4364850;80;20951;-82
2022/06/24 02:54:26;;;;;;;11.90;7.10;;;;;;;11.55;79.65;99013.95;4362861;79;21033;-82
2022/06/24 03:00:29;;;;;;;8.18;6.10;;;;;;;11.45;79.27;99013.88;4363235;79;21023;-82
2022/06/24 03:06:30;;;;;;;7.67;5.45;;;;;;;11.39;79.93;99025.77;4388967;79;21007;-85
2022/06/24 03:12:32;;;;;;;5.83;5.20;;;;;;;11.69;81.04;99027.00;4383591;79;21028;-82
2022/06/24 03:25:28;;;;;;;9.13;6.33;;;;;;;11.79;81.63;99033.92;4268677;82;21443;-81
2022/06/24 03:31:30;;;;;;;9.08;6.05;;;;;;;11.79;81.64;99026.30;4283382;82;21017;-82
2022/06/24 03:37:32;;;;;;;10.32;6.90;;;;;;;11.78;81.98;99023.34;4165288;82;46135;-81
2022/06/24 03:43:33;;;;;;;8.75;6.10;;;;;;;11.85;82.37;99017.91;4052277;86;21119;-81
2022/06/24 03:56:28;;;;;;;11.10;7.10;;;;;;;12.29;83.06;99029.53;4102647;83;21003;-83
2022/06/24 04:02:29;;;;;;;9.88;7.55;;;;;;;12.44;83.10;99027.03;4151163;84;21016;-82
2022/06/24 04:08:31;;;;;;;12.10;7.65;;;;;;;12.57;83.47;99034.53;4151459;84;21016;-81
2022/06/24 04:39:48;;;;;;;9.53;6.85;;;;;;;13.73;84.40;99046.34;4516211;77;22299;-84
2022/06/24 04:45:49;;;;;;;10.58;7.15;;;;;;;13.89;83.54;99048.86;4483871;78;21067;-84
2022/06/24 04:51:50;;;;;;;9.33;7.15;;;;;;;14.12;83.31;99049.81;4483144;78;21002;-83
2022/06/24 04:57:52;;;;;;;9.78;6.47;;;;;;;14.34;83.58;99043.10;4479639;78;20975;-84
2022/06/24 05:03:53;;;;;;;11.63;7.00;;;;;;;14.58;83.15;99043.59;4461103;78;20987;-85
2022/06/24 05:09:55;;;;;;;8.63;6.50;;;;;;;14.84;82.86;99035.41;4473326;78;20996;-85
2022/06/24 05:16:01;;;;;;;11.63;6.30;;;;;;;15.08;82.86;99039.39;4489211;78;21022;-83
2022/06/24 05:22:03;;;;;;;9.58;5.25;;;;;;;15.32;82.90;99032.93;4483124;78;21002;-84
2022/06/24 05:28:06;;;;;;;10.48;6.05;;;;;;;15.64;82.25;99045.12;4498073;78;21961;-83
2022/06/24 05:34:08;;;;;;;7.35;5.30;;;;;;;15.98;82.00;99039.69;4478762;78;20981;-83
2022/06/24 05:40:11;;;;;;;6.55;4.95;;;;;;;16.31;81.77;99036.97;4450000;78;21479;-82
2022/06/24 05:46:13;;;;;;;8.83;4.95;;;;;;;16.60;81.53;99030.55;4460105;78;21552;-83
2022/06/24 05:52:14;;;;;;;10.50;4.40;;;;;;;16.91;81.20;99029.35;4440675;78;21037;-84
2022/06/24 05:58:16;;;;;;;7.70;4.50;;;;;;;17.24;80.54;99032.63;4416231;78;21046;-83
2022/06/24 06:04:18;;;;;;;5.67;3.70;;;;;;;17.53;80.23;99030.21;4401311;79;21035;-84
2022/06/24 06:10:22;;;;;;;7.75;3.75;;;;;;;17.79;79.33;99027.39;4390222;79;21500;-83
2022/06/24 06:16:24;;;;;;;5.40;3.90;;;;;;;18.06;78.71;99023.94;4400989;79;22194;-84
2022/06/24 06:22:28;;;;;;;8.55;3.25;;;;;;;18.36;78.09;99022.97;4399593;79;21027;-84
2022/06/24 06:28:31;;;;;;;6.20;3.40;;;;;;;18.79;77.57;99025.70;4396137;79;22173;-85
2022/06/24 06:34:32;;;;;;;7.17;3.15;;;;;;;19.19;76.81;99031.33;4389881;79;20987;-85
2022/06/24 06:40:37;;;;;;;5.58;3.17;;;;;;;19.43;76.04;99030.80;4401799;79;21028;-86
2022/06/24 06:46:39;;;;;;;7.75;3.77;;;;;;;19.73;75.31;99026.89;4350149;78;20980;-84
2022/06/24 06:52:40;;;;;;;8.25;3.17;;;;;;;20.06;74.29;99029.17;4381748;79;21083;-84
2022/06/24 06:58:42;;;;;;;3.75;2.30;;;;;;;20.49;73.02;99021.09;4395235;79;21118;-84
2022/06/24 07:04:43;;;;;;;1.85;1.42;;;;;;;21.10;66.53;99018.91;4387659;79;21573;-85
2022/06/24 07:10:45;;;;;;;3.70;1.75;;;;;;;22.07;62.58;99016.91;4389180;79;21007;-86
2022/06/24 07:16:46;;;;;;;4.37;1.50;;;;;;;22.83;59.75;99013.17;4366852;79;21019;-87
2022/06/24 07:22:48;;;;;;;3.35;1.77;;;;;;;23.50;58.61;99010.55;4373183;79;21053;-86
2022/06/24 07:28:50;;;;;;;2.37;1.80;;;;;;;23.89;46.29;99008.30;4386146;78;21051;-85
2022/06/24 07:34:51;;;;;;;2.42;1.80;;;;;;;24.33;49.12;99004.80;4439834;78;22023;-85
2022/06/24 07:40:55;;;;;;;2.25;1.80;;;;;;;24.50;45.16;99003.23;4405087;78;20998;-86
2022/06/24 07:46:58;;;;;;;4.72;2.02;;;;;;;24.79;49.11;99004.16;4387305;79;21037;-86
2022/06/24 07:53:00;;;;;;;3.08;1.82;;;;;;;25.26;49.76;98997.92;4383734;78;21013;-87
2022/06/24 07:59:02;;;;;;;3.98;2.08;;;;;;;25.51;49.16;98994.08;4399308;78;22125;-84
2022/06/24 08:05:04;;;;;;;4.87;2.00;;;;;;;25.54;47.59;98988.16;4401971;79;20990;-85
2022/06/24 08:11:06;;;;;;;2.98;2.02;;;;;;;25.56;47.90;98974.46;4387540;79;21007;-84
2022/06/24 08:17:08;;;;;;;1.95;1.32;;;;;;;25.51;44.60;98961.84;4396422;79;21566;-86
2022/06/24 08:23:10;;;;;;;1.80;1.30;;;;;;;25.59;42.26;98953.88;4417914;78;20985;-84
2022/06/24 08:29:11;;;;;;;3.05;1.37;;;;;;;25.44;43.02;98955.83;4451730;78;21076;-87
2022/06/24 08:35:13;;;;;;;4.70;1.40;;;;;;;25.42;41.34;98959.11;4445336;78;21074;-85
2022/06/24 08:41:20;;;;;;;1.27;1.17;;;;;;;25.59;41.33;98954.64;4425400;78;20991;-84
2022/06/24 08:47:21;;;;;;;3.42;1.67;;;;;;;25.68;39.66;98944.01;4461557;78;20971;-86
2022/06/24 08:53:27;;;;;;;3.08;1.37;;;;;;;25.79;41.17;98935.18;4431022;78;22213;-84
2022/06/24 08:59:29;;;;;;;2.03;1.00;;;;;;;25.70;38.33;98926.84;4363296;79;21502;-85
2022/06/24 09:05:31;;;;;;;2.47;1.50;;;;;;;25.69;37.66;98923.12;4355547;78;21029;-85
2022/06/24 09:11:42;;;;;;;2.80;1.50;;;;;;;25.83;39.77;98925.98;4382084;79;20994;-85
2022/06/24 09:17:44;;;;;;;1.85;1.45;;;;;;;26.08;39.61;98923.30;4383620;79;21020;-84
2022/06/24 09:23:54;;;;;;;2.27;1.60;;;;;;;26.06;38.11;98918.17;4373230;79;21449;-85
2022/06/24 09:29:56;;;;;;;4.60;1.72;;;;;;;26.19;39.06;98909.48;4384390;79;21020;-86
2022/06/24 09:36:03;;;;;;;3.98;1.37;;;;;;;26.52;38.85;98910.09;4373778;79;21485;-86
2022/06/24 09:42:05;;;;;;;2.55;1.40;;;;;;;26.99;39.31;98895.05;4385108;79;21459;-87
2022/06/24 09:48:07;;;;;;;2.35;1.27;;;;;;;27.19;36.07;98893.69;4382346;79;21029;-86
2022/06/24 09:54:09;;;;;;;2.83;1.40;;;;;;;27.42;37.76;98895.59;4387638;79;21012;-86
2022/06/24 10:06:36;;;;;;;2.45;1.20;;;;;;;27.90;35.62;98886.10;4401842;79;21458;-85
2022/06/24 10:12:41;;;;;;;1.12;1.00;;;;;;;27.88;33.06;98871.13;4356789;79;21541;-85
2022/06/24 10:18:44;;;;;;;1.15;1.00;;;;;;;28.15;34.83;98879.10;4376842;79;21083;-85
2022/06/24 10:24:45;;;;;;;1.57;1.17;;;;;;;28.53;35.20;98867.47;4384596;79;21353;-85
2022/06/24 10:30:56;;;;;;;1.75;1.20;;;;;;;28.58;33.74;98868.79;4380002;79;21039;-85
2022/06/24 10:37:16;;;;;;;1.85;1.37;;;;;;;28.95;33.84;98863.94;4395990;79;20964;-86
2022/06/24 10:43:40;;;;;;;1.20;1.07;;;;;;;29.22;33.85;98861.97;4350898;79;21021;-87
2022/06/24 10:50:00;;;;;;;2.67;1.20;;;;;;;29.64;33.77;98851.29;4400052;79;21025;-84
2022/06/24 10:55:59;;;;;;;2.92;1.17;;;;;;;29.65;30.98;98837.30;4395331;79;22321;-85
2022/06/24 11:02:00;;;;;;;2.55;0.90;;;;;;;29.58;31.00;98834.96;4375866;79;21519;-87
2022/06/24 11:08:05;;;;;;;1.37;0.82;;;;;;;29.75;32.15;98826.72;4395235;79;21031;-87
2022/06/24 11:14:24;;;;;;;2.70;1.27;;;;;;;30.07;31.98;98825.23;4399095;78;21003;-85
2022/06/24 11:20:26;;;;;;;1.65;1.55;;;;;;;30.27;30.71;98825.03;4385987;79;20995;-86
2022/06/24 11:26:27;;;;;;;6.65;1.32;;;;;;;30.72;31.22;98803.20;4389209;79;21031;-87
2022/06/24 11:32:28;;;;;;;2.12;1.22;;;;;;;30.96;30.66;98801.27;4404560;79;20978;-87
2022/06/24 11:38:32;;;;;;;2.35;1.10;;;;;;;31.18;30.78;98798.38;4394975;79;22012;-86
2022/06/24 11:44:38;;;;;;;1.62;1.20;;;;;;;31.24;29.07;98792.05;4384427;78;21551;-88
2022/06/24 11:50:40;;;;;;;1.20;0.95;;;;;;;31.09;29.10;98787.36;4377991;79;21013;-88
2022/06/24 11:56:43;;;;;;;2.85;1.02;;;;;;;31.49;28.90;98782.46;4396399;79;21008;-88
2022/06/24 12:02:44;;;;;;;4.15;1.27;;;;;;;31.53;29.42;98771.63;4382130;79;21055;-87
2022/06/24 12:08:47;;;;;;;2.70;1.10;;;;;;;31.57;29.48;98770.06;4375307;79;20944;-87
2022/06/24 12:14:55;;;;;;;1.80;1.07;;;;;;;31.43;29.92;98759.09;4368173;79;21042;-87
2022/06/24 12:21:04;;;;;;;1.72;1.00;;;;;;;31.13;29.89;98751.87;4387066;79;20968;-87
2022/06/24 12:27:07;;;;;;;1.17;0.90;;;;;;;30.74;30.35;98753.24;4354476;79;21000;-88
2022/06/24 12:33:14;;;;;;;1.30;1.15;;;;;;;30.32;30.15;98739.56;4364124;79;21549;-87
2022/06/24 12:39:15;;;;;;;4.15;1.02;;;;;;;30.04;30.25;98734.53;4420436;78;21026;-87
2022/06/24 12:45:24;;;;;;;1.60;0.95;;;;;;;29.69;30.74;98721.56;4452322;78;21971;-87
2022/06/24 12:51:25;;;;;;;1.70;1.20;;;;;;;29.29;30.80;98712.06;4452613;78;21011;-87
2022/06/24 12:57:27;;;;;;;4.50;1.00;;;;;;;29.03;31.02;98705.18;4291877;78;65220;-87
2022/06/24 13:03:28;;;;;;;3.77;1.20;;;;;;;28.92;31.10;98707.17;4203535;83;21958;-85
2022/06/24 13:09:30;;;;;;;1.90;1.00;;;;;;;28.67;31.95;98707.44;4228608;83;21027;-87
2022/06/24 13:15:33;;;;;;;1.40;1.00;;;;;;;28.68;32.11;98702.55;4211822;83;21023;-86
2022/06/24 13:21:34;;;;;;;3.37;1.05;;;;;;;28.57;32.27;98708.13;4213926;83;21015;-87
2022/06/24 13:27:36;;;;;;;3.25;0.88;;;;;;;28.54;32.95;98699.28;4210248;83;21507;-88
2022/06/24 13:33:38;;;;;;;1.45;1.10;;;;;;;28.43;32.87;98697.77;4177311;83;21046;-85
2022/06/24 13:39:39;;;;;;;1.98;1.20;;;;;;;28.36;32.92;98697.59;4119263;85;21107;-86
2022/06/24 13:45:40;;;;;;;1.75;1.00;;;;;;;28.35;33.43;98693.88;4111147;85;21928;-86
2022/06/24 13:51:42;;;;;;;2.30;1.00;;;;;;;28.43;32.98;98680.88;4122695;85;21056;-87
2022/06/24 13:57:43;;;;;;;2.22;1.30;;;;;;;28.35;32.05;98680.58;4146092;85;21007;-88
2022/06/24 14:03:44;;;;;;;1.82;1.05;;;;;;;28.28;32.73;98669.80;4099926;86;21004;-87
2022/06/24 14:09:46;;;;;;;3.10;1.20;;;;;;;28.23;33.52;98667.72;4209330;83;20967;-87
2022/06/24 14:15:47;;;;;;;1.02;0.90;;;;;;;28.22;33.47;98664.75;4189697;83;21002;-86
2022/06/24 14:21:48;;;;;;;3.58;1.00;;;;;;;28.27;33.95;98655.58;4149861;85;20992;-88
2022/06/24 14:27:50;;;;;;;1.30;1.20;;;;;;;28.33;33.93;98645.78;4079231;86;22150;-87
2022/06/24 14:33:51;;;;;;;2.27;1.10;;;;;;;28.37;34.27;98635.82;4111657;85;21579;-84
2022/06/24 14:40:11;;;;;;;3.25;1.45;;;;;;;28.31;34.13;98637.06;4132775;83;21452;-88
2022/06/24 14:46:12;;;;;;;2.12;1.30;;;;;;;28.19;34.10;98629.17;4130107;85;21009;-86
2022/06/24 14:52:13;;;;;;;3.50;1.20;;;;;;;28.08;34.58;98619.91;4078945;86;21016;-87
2022/06/24 14:58:15;;;;;;;7.45;1.27;;;;;;;28.04;35.01;98611.70;4163391;83;21024;-86
2022/06/24 15:04:16;;;;;;;3.20;1.45;;;;;;;27.97;35.25;98613.55;3994124;84;9999726;-86
2022/06/24 15:10:18;;;;;;;2.45;1.40;;;;;;;27.91;35.41;98597.93;4154754;83;21554;-86
2022/06/24 15:16:19;;;;;;;1.17;1.05;;;;;;;27.87;35.78;98591.72;4195572;83;20998;-86
2022/06/24 15:22:21;;;;;;;4.78;1.10;;;;;;;27.77;36.01;98592.55;4166422;83;21879;-86
2022/06/24 15:28:24;;;;;;;2.00;0.95;;;;;;;27.70;35.94;98590.20;4144680;85;20998;-86
2022/06/24 15:34:25;;;;;;;1.25;1.12;;;;;;;27.70;36.08;98585.20;4130900;85;21046;-86
2022/06/24 15:40:27;;;;;;;4.33;1.30;;;;;;;27.59;36.21;98592.92;4153122;84;21058;-87
2022/06/24 15:46:29;;;;;;;5.65;1.30;;;;;;;27.31;36.01;98582.08;4151680;83;21932;-86
2022/06/24 15:52:31;;;;;;;2.58;1.40;;;;;;;27.16;36.25;98577.95;4168101;84;20995;-87
2022/06/24 15:58:32;;;;;;;3.15;1.52;;;;;;;27.04;36.75;98565.07;4132351;83;22077;-86
2022/06/24 16:04:33;;;;;;;2.92;1.27;;;;;;;26.87;37.17;98566.16;4141106;84;21039;-86
2022/06/24 16:10:35;;;;;;;3.75;1.12;;;;;;;26.80;37.39;98560.34;4169829;84;20984;-86
2022/06/24 16:16:36;;;;;;;4.25;1.95;;;;;;;26.72;37.62;98558.48;4174412;83;21963;-86
2022/06/24 16:22:38;;;;;;;1.57;1.07;;;;;;;26.72;37.91;98545.19;4158473;84;21500;-86
2022/06/24 16:28:43;;;;;;;3.92;1.35;;;;;;;26.69;38.17;98543.38;4170026;83;20990;-86
2022/06/24 16:34:44;;;;;;;4.97;1.57;;;;;;;26.67;38.55;98540.94;4147173;83;20994;-86
2022/06/24 16:40:45;;;;;;;3.60;1.45;;;;;;;26.55;38.63;98530.17;4130563;84;21056;-85
2022/06/24 16:46:47;;;;;;;3.27;1.50;;;;;;;26.45;38.87;98535.03;4090832;85;21076;-85
2022/06/24 16:52:48;;;;;;;3.77;1.60;;;;;;;26.43;38.97;98534.12;4031641;85;9999845;-85
2022/06/24 16:58:49;;;;;;;5.20;1.82;;;;;;;26.40;39.07;98524.51;4090917;84;21007;-83
2022/06/24 17:04:52;;;;;;;4.00;1.30;;;;;;;26.16;39.52;98512.10;4067885;86;21879;-85
2022/06/24 17:10:53;;;;;;;4.00;1.67;;;;;;;26.16;39.52;98512.10;4151051;84;20994;-86
2022/06/24 17:16:55;;;;;;;2.00;1.65;;;;;;;26.24;39.73;98527.25;4166920;83;21037;-84
2022/06/24 17:22:56;;;;;;;4.08;1.87;;;;;;;26.14;40.28;98532.23;4178625;83;21005;-85
2022/06/24 17:28:57;;;;;;;6.20;1.80;;;;;;;26.06;40.40;98537.33;4162332;84;21597;-87
2022/06/24 17:35:00;;;;;;;10.10;1.90;;;;;;;26.01;40.57;98542.26;4164135;84;21012;-84
2022/06/24 17:41:01;;;;;;;3.27;2.00;;;;;;;25.78;40.88;98519.32;4171637;84;21001;-85
2022/06/24 17:47:03;;;;;;;6.47;2.00;;;;;;;25.66;41.35;98551.27;4179842;83;21007;-86
2022/06/24 17:53:04;;;;;;;3.15;2.00;;;;;;;25.66;41.35;98551.27;4178844;84;21019;-86
2022/06/24 17:59:06;;;;;;;5.17;1.70;;;;;;;25.48;41.42;98559.27;4178778;84;20968;-86
2022/06/24 18:05:08;;;;;;;4.42;1.90;;;;;;;25.38;41.57;98560.64;4175274;84;21015;-85
2022/06/24 18:11:09;;;;;;;2.50;1.75;;;;;;;25.20;41.93;98555.20;4144261;85;20994;-85
2022/06/24 18:17:10;;;;;;;3.72;1.60;;;;;;;25.05;42.29;98560.04;4189464;84;21501;-86
2022/06/24 18:23:12;;;;;;;3.17;2.02;;;;;;;24.93;42.49;98555.50;4194531;84;21019;-85
2022/06/24 18:29:13;;;;;;;6.12;1.85;;;;;;;24.77;42.76;98548.96;4154684;85;21058;-86
2022/06/24 18:35:14;;;;;;;2.62;1.80;;;;;;;24.63;43.01;98546.88;4181655;84;21006;-84
2022/06/24 18:41:16;;;;;;;2.98;1.80;;;;;;;24.48;43.43;98549.64;4205403;83;21043;-85
2022/06/24 18:47:17;;;;;;;3.60;1.98;;;;;;;24.32;43.83;98552.87;4246450;83;20998;-85
2022/06/24 18:53:19;;;;;;;5.25;2.00;;;;;;;24.19;44.12;98549.56;4233898;83;21122;-85
2022/06/24 18:59:21;;;;;;;3.77;2.27;;;;;;;24.05;44.41;98550.28;4246374;83;21075;-86
2022/06/24 19:05:22;;;;;;;6.17;2.45;;;;;;;23.91;44.86;98555.16;4243872;83;21446;-85
2022/06/24 19:11:24;;;;;;;5.08;2.17;;;;;;;23.75;45.21;98549.95;4233149;83;21209;-85
2022/06/24 19:17:25;;;;;;;4.40;2.33;;;;;;;23.60;45.52;98554.66;4243425;83;22036;-86
2022/06/24 19:23:26;;;;;;;2.50;2.00;;;;;;;23.44;45.94;98555.06;4223303;83;21019;-86
2022/06/24 19:29:28;;;;;;;3.17;2.40;;;;;;;23.32;46.24;98553.86;4223718;83;20999;-85
2022/06/24 19:35:29;;;;;;;5.87;2.65;;;;;;;23.16;46.63;98554.97;4246520;83;21054;-86
2022/06/24 19:41:30;;;;;;;5.87;3.00;;;;;;;22.96;47.01;98562.45;4202953;83;21081;-85
2022/06/24 19:47:32;;;;;;;6.67;3.15;;;;;;;22.76;47.52;98558.59;4140359;84;21004;-86
2022/06/24 19:53:33;;;;;;;4.87;2.80;;;;;;;22.58;47.91;98560.02;4178364;84;20975;-85
2022/06/24 19:59:34;;;;;;;4.42;2.85;;;;;;;22.42;48.38;98554.70;4189246;84;21565;-86
2022/06/24 20:05:48;;;;;;;4.42;2.92;;;;;;;22.28;48.82;98554.70;4108702;85;21042;-84
2022/06/24 20:12:01;;;;;;;4.70;2.37;;;;;;;22.14;49.20;98548.95;4064806;85;20991;-85
2022/06/24 20:18:02;;;;;;;4.55;2.40;;;;;;;21.97;49.59;98548.47;4064632;85;21660;-85
2022/06/24 20:24:06;;;;;;;6.03;3.08;;;;;;;21.82;50.00;98551.67;4133241;85;21595;-85
2022/06/24 20:30:08;;;;;;;9.33;3.60;;;;;;;21.68;50.40;98550.83;4214350;82;21058;-85
2022/06/24 20:36:09;;;;;;;6.83;2.85;;;;;;;21.53;50.79;98546.44;4152328;85;21085;-85
2022/06/24 20:42:11;;;;;;;5.00;2.65;;;;;;;21.39;51.13;98549.03;4117416;84;21639;-85
2022/06/24 20:48:12;;;;;;;6.05;3.22;;;;;;;21.25;51.63;98542.63;4188536;84;20993;-85
2022/06/24 20:54:14;;;;;;;5.33;3.45;;;;;;;21.12;51.94;98547.49;4101081;85;20993;-85
2022/06/24 21:00:15;;;;;;;7.80;3.37;;;;;;;20.99;52.45;98539.23;4124599;85;20992;-85
2022/06/24 21:06:17;;;;;;;4.95;3.25;;;;;;;20.89;52.83;98552.88;4097864;85;21012;-85
2022/06/24 21:12:18;;;;;;;7.75;3.20;;;;;;;20.79;53.14;98554.06;4172732;84;20988;-85
2022/06/24 21:18:19;;;;;;;5.42;3.12;;;;;;;20.68;53.39;98564.80;4160813;84;21906;-85
2022/06/24 21:24:21;;;;;;;5.05;2.83;;;;;;;20.57;53.72;98562.23;4168587;85;21462;-85
2022/06/24 21:30:22;;;;;;;5.12;2.80;;;;;;;20.49;54.05;98565.09;4161431;85;21852;-86
2022/06/24 21:36:23;;;;;;;6.45;3.33;;;;;;;20.41;54.58;98572.13;4162127;85;20983;-86
2022/06/24 21:42:26;;;;;;;4.05;2.77;;;;;;;20.37;55.52;98581.22;4127010;83;21095;-86
2022/06/24 21:48:27;;;;;;;3.67;2.60;;;;;;;20.34;55.83;98581.52;4099575;84;21512;-87
2022/06/24 21:54:28;;;;;;;4.03;2.85;;;;;;;20.31;56.28;98585.20;4092761;86;21002;-87
2022/06/24 22:00:30;;;;;;;7.35;3.02;;;;;;;20.29;56.41;98595.20;4082411;86;21018;-86
2022/06/24 22:06:32;;;;;;;4.42;3.08;;;;;;;20.16;56.61;98589.06;4089858;86;21028;-86
2022/06/24 22:12:35;;;;;;;5.05;2.92;;;;;;;19.93;57.05;98585.25;4092114;86;21063;-85
2022/06/24 22:18:36;;;;;;;8.50;3.25;;;;;;;19.79;57.58;98598.81;4090780;85;20991;-86
2022/06/24 22:24:38;;;;;;;6.35;3.20;;;;;;;19.68;57.88;98593.61;4027542;85;21026;-86
2022/06/24 22:30:39;;;;;;;5.00;3.15;;;;;;;19.43;57.95;98595.59;4077792;84;21032;-86
2022/06/24 22:36:40;;;;;;;4.45;3.12;;;;;;;19.24;58.45;98597.92;4061693;86;21680;-86
2022/06/24 22:42:42;;;;;;;7.25;4.50;;;;;;;19.11;59.25;98600.67;4116185;84;21096;-86
2022/06/24 22:48:43;;;;;;;9.00;5.65;;;;;;;18.97;59.43;98597.53;4157407;84;21054;-86
2022/06/24 22:54:46;;;;;;;7.20;5.00;;;;;;;18.85;59.79;98599.06;4130186;84;21028;-86
2022/06/24 23:00:47;;;;;;;10.03;5.30;;;;;;;18.75;60.19;98600.13;4134077;84;21027;-86
2022/06/24 23:06:49;;;;;;;8.78;5.50;;;;;;;18.63;60.46;98598.09;4151929;84;21002;-85
2022/06/24 23:12:50;;;;;;;7.25;4.55;;;;;;;18.51;60.85;98600.22;4187920;83;21018;-86
2022/06/24 23:18:52;;;;;;;7.12;4.20;;;;;;;18.36;62.21;98597.61;4162102;84;21926;-86
2022/06/24 23:24:57;;;;;;;9.03;4.80;;;;;;;18.33;63.10;98597.09;4155570;84;21017;-85
2022/06/24 23:30:56;;;;;;;6.03;4.08;;;;;;;18.20;63.22;98603.16;4097704;85;21073;-85
2022/06/24 23:36:58;;;;;;;6.55;4.12;;;;;;;17.99;63.74;98592.64;4145116;84;20980;-85
2022/06/24 23:42:59;;;;;;;6.20;4.53;;;;;;;17.82;63.81;98591.08;4115365;85;20985;-85
2022/06/24 23:55:20;;;;;;;6.08;4.60;;;;;;;17.52;64.57;98589.42;4128355;85;21500;-85
